CheckWX is a tool to help pilots better visualize weather data.  It is not intended as a substitute for an official pre-flight weather briefing.

01:47:31 UTC

KSCX METAR
Scott Municipal Airport
Oneida, Tennessee, USA
Current

33 mins ago

KSCX 240115Z AUTO 20008G13KT 10SM OVC013 14/13 A2982 RMK A01
Observed
Feb-24 @ 01:15 UTC
Wind
  • 200° at 8 KTS
  • Gusting to 13 KTS
Visibility
10 SM
Flight Rules
MVFR
Cloud Levels
  • Overcast at 1,300' AGL
Temperature
14°C / 57°F
Dewpoint
13°C / 55°F
Humidity
94%
Altimeter
29.82" Hg
Pressure
1009.82 hPa
Previous

53 mins ago

KSCX 240055Z AUTO 20011KT 10SM OVC013 15/13 A2983 RMK A01
Observed
Feb-24 @ 00:55 UTC
Wind
  • 200° at 11 KTS
Visibility
10 SM
Flight Rules
MVFR
Cloud Levels
  • Overcast at 1,300' AGL
Temperature
15°C / 59°F
Dewpoint
13°C / 55°F
Humidity
88%
Altimeter
29.83" Hg
Pressure
1010.12 hPa
Previous

1 hour ago

KSCX 240035Z AUTO 20008G15KT 10SM OVC013 15/13 A2983 RMK A01
Observed
Feb-24 @ 00:35 UTC
Wind
  • 200° at 8 KTS
  • Gusting to 15 KTS
Visibility
10 SM
Flight Rules
MVFR
Cloud Levels
  • Overcast at 1,300' AGL
Temperature
15°C / 59°F
Dewpoint
13°C / 55°F
Humidity
88%
Altimeter
29.83" Hg
Pressure
1010.12 hPa